sensor_id;sensor_type;location;lat;lon;timestamp;temperature;humidity
52267;DHT22;38223;50.940;4.034;2022-08-04T00:01:02;25.00;99.90
52267;DHT22;38223;50.940;4.034;2022-08-04T00:03:27;25.00;99.90
52267;DHT22;38223;50.940;4.034;2022-08-04T00:06:03;24.90;99.90
52267;DHT22;38223;50.940;4.034;2022-08-04T00:08:51;24.80;99.90
52267;DHT22;38223;50.940;4.034;2022-08-04T00:11:22;24.90;99.90
52267;DHT22;38223;50.940;4.034;2022-08-04T00:14:05;25.00;99.90
52267;DHT22;38223;50.940;4.034;2022-08-04T00:16:32;25.00;99.90
52267;DHT22;38223;50.940;4.034;2022-08-04T00:19:04;25.10;99.90
52267;DHT22;38223;50.940;4.034;2022-08-04T00:21:41;24.90;99.90
52267;DHT22;38223;50.940;4.034;2022-08-04T00:24:12;24.90;99.90
52267;DHT22;38223;50.940;4.034;2022-08-04T00:26:47;24.90;99.90
52267;DHT22;38223;50.940;4.034;2022-08-04T00:29:16;24.90;99.90
52267;DHT22;38223;50.940;4.034;2022-08-04T00:31:49;24.90;99.90
52267;DHT22;38223;50.940;4.034;2022-08-04T00:34:25;24.90;99.90
52267;DHT22;38223;50.940;4.034;2022-08-04T00:36:57;25.00;99.90
52267;DHT22;38223;50.940;4.034;2022-08-04T00:39:32;24.80;99.90
52267;DHT22;38223;50.940;4.034;2022-08-04T00:50:24;24.90;99.90
52267;DHT22;38223;50.940;4.034;2022-08-04T01:04:30;24.40;99.90
52267;DHT22;38223;50.940;4.034;2022-08-04T01:10:39;24.50;99.90
52267;DHT22;38223;50.940;4.034;2022-08-04T01:18:17;24.40;99.90
52267;DHT22;38223;50.940;4.034;2022-08-04T01:26:39;24.20;99.90
52267;DHT22;38223;50.940;4.034;2022-08-04T01:29:15;24.10;99.90
52267;DHT22;38223;50.940;4.034;2022-08-04T01:32:06;24.00;99.90
52267;DHT22;38223;50.940;4.034;2022-08-04T01:34:45;24.00;99.90
52267;DHT22;38223;50.940;4.034;2022-08-04T01:37:36;24.00;99.90
52267;DHT22;38223;50.940;4.034;2022-08-04T01:40:07;23.80;99.90
52267;DHT22;38223;50.940;4.034;2022-08-04T01:42:44;23.70;99.90
52267;DHT22;38223;50.940;4.034;2022-08-04T01:45:16;23.60;99.90
52267;DHT22;38223;50.940;4.034;2022-08-04T01:47:52;23.60;99.90
52267;DHT22;38223;50.940;4.034;2022-08-04T01:50:25;23.50;99.90
52267;DHT22;38223;50.940;4.034;2022-08-04T01:52:56;23.50;99.90
52267;DHT22;38223;50.940;4.034;2022-08-04T01:55:31;23.50;99.90
52267;DHT22;38223;50.940;4.034;2022-08-04T01:58:06;23.40;99.90
52267;DHT22;38223;50.940;4.034;2022-08-04T02:00:37;23.50;99.90
52267;DHT22;38223;50.940;4.034;2022-08-04T02:03:14;23.40;99.90
52267;DHT22;38223;50.940;4.034;2022-08-04T02:05:45;23.60;99.90
52267;DHT22;38223;50.940;4.034;2022-08-04T02:08:36;23.70;99.90
52267;DHT22;38223;50.940;4.034;2022-08-04T02:14:05;23.60;99.90
52267;DHT22;38223;50.940;4.034;2022-08-04T02:16:48;23.60;99.90
52267;DHT22;38223;50.940;4.034;2022-08-04T02:19:47;23.50;99.90
52267;DHT22;38223;50.940;4.034;2022-08-04T02:22:17;23.50;99.90
52267;DHT22;38223;50.940;4.034;2022-08-04T02:24:56;23.60;99.90
52267;DHT22;38223;50.940;4.034;2022-08-04T02:27:24;23.70;99.90
52267;DHT22;38223;50.940;4.034;2022-08-04T02:29:59;23.60;99.90
52267;DHT22;38223;50.940;4.034;2022-08-04T02:35:05;23.40;99.90
52267;DHT22;38223;50.940;4.034;2022-08-04T02:37:37;23.30;99.90
52267;DHT22;38223;50.940;4.034;2022-08-04T02:40:12;23.40;99.90
52267;DHT22;38223;50.940;4.034;2022-08-04T02:42:47;23.60;99.90
52267;DHT22;38223;50.940;4.034;2022-08-04T02:45:19;23.70;99.90
52267;DHT22;38223;50.940;4.034;2022-08-04T02:47:54;23.80;99.90
52267;DHT22;38223;50.940;4.034;2022-08-04T02:50:29;23.60;99.90
52267;DHT22;38223;50.940;4.034;2022-08-04T02:53:02;23.60;99.90
52267;DHT22;38223;50.940;4.034;2022-08-04T02:55:34;23.70;99.90
52267;DHT22;38223;50.940;4.034;2022-08-04T02:58:08;23.60;99.90
52267;DHT22;38223;50.940;4.034;2022-08-04T03:00:43;23.60;99.90
52267;DHT22;38223;50.940;4.034;2022-08-04T03:03:30;23.50;99.90
52267;DHT22;38223;50.940;4.034;2022-08-04T03:12:05;23.40;99.90
52267;DHT22;38223;50.940;4.034;2022-08-04T03:20:23;23.30;99.90
52267;DHT22;38223;50.940;4.034;2022-08-04T03:23:12;23.40;99.90
52267;DHT22;38223;50.940;4.034;2022-08-04T03:31:35;23.40;99.90
52267;DHT22;38223;50.940;4.034;2022-08-04T03:45:46;22.70;99.90
52267;DHT22;38223;50.940;4.034;2022-08-04T03:51:19;22.90;99.90
52267;DHT22;38223;50.940;4.034;2022-08-04T03:54:38;22.80;99.90
52267;DHT22;38223;50.940;4.034;2022-08-04T04:00:10;22.80;99.90
52267;DHT22;38223;50.940;4.034;2022-08-04T04:11:43;22.50;99.90
52267;DHT22;38223;50.940;4.034;2022-08-04T04:14:29;22.40;99.90
52267;DHT22;38223;50.940;4.034;2022-08-04T04:17:32;22.20;99.90
52267;DHT22;38223;50.940;4.034;2022-08-04T04:26:05;22.20;99.90
52267;DHT22;38223;50.940;4.034;2022-08-04T04:37:18;22.10;99.90
52267;DHT22;38223;50.940;4.034;2022-08-04T04:40:09;22.10;99.90
52267;DHT22;38223;50.940;4.034;2022-08-04T04:48:38;21.90;99.90
52267;DHT22;38223;50.940;4.034;2022-08-04T04:51:32;21.90;99.90
52267;DHT22;38223;50.940;4.034;2022-08-04T04:54:24;21.90;99.90
52267;DHT22;38223;50.940;4.034;2022-08-04T04:57:03;22.00;99.90
52267;DHT22;38223;50.940;4.034;2022-08-04T04:59:33;22.20;99.90
52267;DHT22;38223;50.940;4.034;2022-08-04T05:08:21;22.60;99.90
52267;DHT22;38223;50.940;4.034;2022-08-04T05:11:03;22.60;99.90
52267;DHT22;38223;50.940;4.034;2022-08-04T05:13:36;22.70;99.90
52267;DHT22;38223;50.940;4.034;2022-08-04T05:16:30;22.70;99.90
52267;DHT22;38223;50.940;4.034;2022-08-04T05:24:33;22.60;99.90
52267;DHT22;38223;50.940;4.034;2022-08-04T05:27:11;22.70;99.90
52267;DHT22;38223;50.940;4.034;2022-08-04T05:29:45;22.80;99.90
52267;DHT22;38223;50.940;4.034;2022-08-04T05:32:13;22.80;99.90
52267;DHT22;38223;50.940;4.034;2022-08-04T05:34:48;22.70;99.90
52267;DHT22;38223;50.940;4.034;2022-08-04T05:37:19;22.70;99.90
52267;DHT22;38223;50.940;4.034;2022-08-04T05:39:53;22.60;99.90
52267;DHT22;38223;50.940;4.034;2022-08-04T05:42:21;22.60;99.90
52267;DHT22;38223;50.940;4.034;2022-08-04T05:44:55;22.60;99.90
52267;DHT22;38223;50.940;4.034;2022-08-04T05:47:25;22.50;99.90
52267;DHT22;38223;50.940;4.034;2022-08-04T05:50:04;22.70;99.90
52267;DHT22;38223;50.940;4.034;2022-08-04T05:52:38;22.70;99.90
52267;DHT22;38223;50.940;4.034;2022-08-04T05:55:15;22.60;99.90
52267;DHT22;38223;50.940;4.034;2022-08-04T05:57:52;22.60;99.90
52267;DHT22;38223;50.940;4.034;2022-08-04T06:00:23;22.50;99.90
52267;DHT22;38223;50.940;4.034;2022-08-04T06:02:55;22.50;99.90
52267;DHT22;38223;50.940;4.034;2022-08-04T06:05:31;22.50;99.90
52267;DHT22;38223;50.940;4.034;2022-08-04T06:08:06;22.50;99.90
52267;DHT22;38223;50.940;4.034;2022-08-04T06:10:39;22.60;99.90
52267;DHT22;38223;50.940;4.034;2022-08-04T06:13:14;22.60;99.90
52267;DHT22;38223;50.940;4.034;2022-08-04T06:15:51;22.50;99.90
52267;DHT22;38223;50.940;4.034;2022-08-04T06:18:28;22.40;99.90
52267;DHT22;38223;50.940;4.034;2022-08-04T06:20:59;22.30;99.90
52267;DHT22;38223;50.940;4.034;2022-08-04T06:23:32;22.30;99.90
52267;DHT22;38223;50.940;4.034;2022-08-04T06:26:04;22.30;99.90
52267;DHT22;38223;50.940;4.034;2022-08-04T06:28:34;22.10;99.90
52267;DHT22;38223;50.940;4.034;2022-08-04T06:31:10;22.00;99.90
52267;DHT22;38223;50.940;4.034;2022-08-04T06:33:43;22.10;99.90
52267;DHT22;38223;50.940;4.034;2022-08-04T06:36:13;22.20;99.90
52267;DHT22;38223;50.940;4.034;2022-08-04T06:38:47;22.60;99.90
52267;DHT22;38223;50.940;4.034;2022-08-04T06:41:24;22.60;99.90
52267;DHT22;38223;50.940;4.034;2022-08-04T06:43:59;22.60;99.90
52267;DHT22;38223;50.940;4.034;2022-08-04T06:46:32;22.70;99.90
52267;DHT22;38223;50.940;4.034;2022-08-04T06:49:06;22.60;99.90
52267;DHT22;38223;50.940;4.034;2022-08-04T06:51:42;22.30;99.90
52267;DHT22;38223;50.940;4.034;2022-08-04T06:54:14;22.30;99.90
52267;DHT22;38223;50.940;4.034;2022-08-04T06:56:48;22.60;99.90
52267;DHT22;38223;50.940;4.034;2022-08-04T06:59:21;22.40;99.90
52267;DHT22;38223;50.940;4.034;2022-08-04T07:01:54;22.10;99.90
52267;DHT22;38223;50.940;4.034;2022-08-04T07:04:29;22.40;99.90
52267;DHT22;38223;50.940;4.034;2022-08-04T07:07:03;22.50;99.90
52267;DHT22;38223;50.940;4.034;2022-08-04T07:09:36;22.30;99.90
52267;DHT22;38223;50.940;4.034;2022-08-04T07:12:11;22.40;99.90
52267;DHT22;38223;50.940;4.034;2022-08-04T07:14:44;22.60;99.90
52267;DHT22;38223;50.940;4.034;2022-08-04T07:17:15;22.70;99.90
52267;DHT22;38223;50.940;4.034;2022-08-04T07:19:49;22.90;99.90
52267;DHT22;38223;50.940;4.034;2022-08-04T07:22:25;23.00;99.90
52267;DHT22;38223;50.940;4.034;2022-08-04T07:24:59;22.90;99.90
52267;DHT22;38223;50.940;4.034;2022-08-04T07:27:33;22.80;99.90
52267;DHT22;38223;50.940;4.034;2022-08-04T07:30:10;23.20;99.90
52267;DHT22;38223;50.940;4.034;2022-08-04T07:32:41;23.30;99.90
52267;DHT22;38223;50.940;4.034;2022-08-04T07:35:17;23.20;99.90
52267;DHT22;38223;50.940;4.034;2022-08-04T07:37:48;23.20;99.90
52267;DHT22;38223;50.940;4.034;2022-08-04T07:40:24;23.20;99.90
52267;DHT22;38223;50.940;4.034;2022-08-04T07:42:56;23.20;99.90
52267;DHT22;38223;50.940;4.034;2022-08-04T07:45:28;23.30;99.90
52267;DHT22;38223;50.940;4.034;2022-08-04T07:48:03;23.40;99.90
52267;DHT22;38223;50.940;4.034;2022-08-04T07:50:36;23.40;99.90
52267;DHT22;38223;50.940;4.034;2022-08-04T07:53:14;23.30;99.90
52267;DHT22;38223;50.940;4.034;2022-08-04T07:55:45;23.30;99.90
52267;DHT22;38223;50.940;4.034;2022-08-04T07:58:16;23.20;99.90
52267;DHT22;38223;50.940;4.034;2022-08-04T08:00:49;23.10;99.90
52267;DHT22;38223;50.940;4.034;2022-08-04T08:03:26;23.10;99.90
52267;DHT22;38223;50.940;4.034;2022-08-04T08:06:00;23.10;99.90
52267;DHT22;38223;50.940;4.034;2022-08-04T08:08:28;22.90;99.90
52267;DHT22;38223;50.940;4.034;2022-08-04T08:11:01;22.80;99.90
52267;DHT22;38223;50.940;4.034;2022-08-04T08:13:36;22.80;99.90
52267;DHT22;38223;50.940;4.034;2022-08-04T08:16:10;22.50;99.90
52267;DHT22;38223;50.940;4.034;2022-08-04T08:18:42;22.50;99.90
52267;DHT22;38223;50.940;4.034;2022-08-04T08:21:21;22.50;99.90
52267;DHT22;38223;50.940;4.034;2022-08-04T08:23:50;22.40;99.90
52267;DHT22;38223;50.940;4.034;2022-08-04T08:26:22;22.30;99.90
52267;DHT22;38223;50.940;4.034;2022-08-04T08:28:57;22.10;99.90
52267;DHT22;38223;50.940;4.034;2022-08-04T08:31:28;22.10;99.90
52267;DHT22;38223;50.940;4.034;2022-08-04T08:34:01;22.10;99.90
52267;DHT22;38223;50.940;4.034;2022-08-04T08:36:52;22.00;99.90
52267;DHT22;38223;50.940;4.034;2022-08-04T08:39:34;22.00;99.90
52267;DHT22;38223;50.940;4.034;2022-08-04T08:42:28;21.90;99.90
52267;DHT22;38223;50.940;4.034;2022-08-04T08:53:58;21.10;99.90
52267;DHT22;38223;50.940;4.034;2022-08-04T08:56:51;21.20;99.90
52267;DHT22;38223;50.940;4.034;2022-08-04T09:08:16;21.10;99.90
52267;DHT22;38223;50.940;4.034;2022-08-04T09:10:55;21.30;99.90
52267;DHT22;38223;50.940;4.034;2022-08-04T09:13:33;21.30;99.90
52267;DHT22;38223;50.940;4.034;2022-08-04T09:19:24;21.70;99.90
52267;DHT22;38223;50.940;4.034;2022-08-04T09:22:15;22.00;99.90
52267;DHT22;38223;50.940;4.034;2022-08-04T09:27:24;22.10;99.90
52267;DHT22;38223;50.940;4.034;2022-08-04T09:30:11;22.20;99.90
52267;DHT22;38223;50.940;4.034;2022-08-04T09:35:44;22.50;99.90
52267;DHT22;38223;50.940;4.034;2022-08-04T09:38:22;22.40;99.90
52267;DHT22;38223;50.940;4.034;2022-08-04T09:40:56;22.70;99.90
52267;DHT22;38223;50.940;4.034;2022-08-04T09:43:31;22.30;99.90
52267;DHT22;38223;50.940;4.034;2022-08-04T09:46:13;22.20;99.90
52267;DHT22;38223;50.940;4.034;2022-08-04T09:51:45;22.60;99.90
52267;DHT22;38223;50.940;4.034;2022-08-04T09:54:32;22.70;99.90
52267;DHT22;38223;50.940;4.034;2022-08-04T10:00:08;22.70;99.90
52267;DHT22;38223;50.940;4.034;2022-08-04T10:02:52;22.60;99.90
52267;DHT22;38223;50.940;4.034;2022-08-04T10:08:55;22.80;99.90
52267;DHT22;38223;50.940;4.034;2022-08-04T10:11:32;23.00;99.90
52267;DHT22;38223;50.940;4.034;2022-08-04T10:14:04;23.10;99.90
52267;DHT22;38223;50.940;4.034;2022-08-04T10:16:45;23.40;99.90
52267;DHT22;38223;50.940;4.034;2022-08-04T10:19:23;23.50;99.90
52267;DHT22;38223;50.940;4.034;2022-08-04T10:22:27;23.30;99.90
52267;DHT22;38223;50.940;4.034;2022-08-04T10:27:45;23.20;99.90
52267;DHT22;38223;50.940;4.034;2022-08-04T10:30:19;23.20;99.90
52267;DHT22;38223;50.940;4.034;2022-08-04T10:33:02;23.50;99.90
52267;DHT22;38223;50.940;4.034;2022-08-04T10:35:49;23.80;99.90
52267;DHT22;38223;50.940;4.034;2022-08-04T10:38:25;23.70;99.90
52267;DHT22;38223;50.940;4.034;2022-08-04T10:43:40;23.50;99.90
52267;DHT22;38223;50.940;4.034;2022-08-04T10:49:03;23.80;99.90
52267;DHT22;38223;50.940;4.034;2022-08-04T10:51:53;23.80;99.90
52267;DHT22;38223;50.940;4.034;2022-08-04T10:57:22;24.00;99.90
52267;DHT22;38223;50.940;4.034;2022-08-04T11:00:02;24.00;99.90
52267;DHT22;38223;50.940;4.034;2022-08-04T11:07:56;24.10;99.90
52267;DHT22;38223;50.940;4.034;2022-08-04T11:10:27;24.70;99.90
52267;DHT22;38223;50.940;4.034;2022-08-04T11:12:59;24.70;99.90
52267;DHT22;38223;50.940;4.034;2022-08-04T11:15:51;25.00;99.90
52267;DHT22;38223;50.940;4.034;2022-08-04T11:18:15;25.30;99.90
52267;DHT22;38223;50.940;4.034;2022-08-04T11:20:54;25.30;99.90
52267;DHT22;38223;50.940;4.034;2022-08-04T11:23:25;25.10;99.90
52267;DHT22;38223;50.940;4.034;2022-08-04T11:26:08;25.10;99.90
52267;DHT22;38223;50.940;4.034;2022-08-04T11:28:41;25.30;99.90
52267;DHT22;38223;50.940;4.034;2022-08-04T11:31:31;25.30;99.90
52267;DHT22;38223;50.940;4.034;2022-08-04T11:39:33;25.30;99.90
52267;DHT22;38223;50.940;4.034;2022-08-04T11:42:25;25.10;99.90
52267;DHT22;38223;50.940;4.034;2022-08-04T11:48:00;25.00;99.90
52267;DHT22;38223;50.940;4.034;2022-08-04T11:53:17;25.00;99.90
52267;DHT22;38223;50.940;4.034;2022-08-04T11:55:49;25.00;99.90
52267;DHT22;38223;50.940;4.034;2022-08-04T11:58:22;25.10;99.90
52267;DHT22;38223;50.940;4.034;2022-08-04T12:01:22;25.30;99.90
52267;DHT22;38223;50.940;4.034;2022-08-04T12:04:16;25.40;99.90
52267;DHT22;38223;50.940;4.034;2022-08-04T12:06:54;25.80;99.90
52267;DHT22;38223;50.940;4.034;2022-08-04T12:10:14;25.50;99.90
52267;DHT22;38223;50.940;4.034;2022-08-04T12:15:26;25.50;99.90
52267;DHT22;38223;50.940;4.034;2022-08-04T12:20:38;26.00;99.90
52267;DHT22;38223;50.940;4.034;2022-08-04T12:23:05;26.50;99.90
52267;DHT22;38223;50.940;4.034;2022-08-04T12:25:45;26.80;99.90
52267;DHT22;38223;50.940;4.034;2022-08-04T12:28:40;27.10;99.90
52267;DHT22;38223;50.940;4.034;2022-08-04T12:31:04;27.40;99.90
52267;DHT22;38223;50.940;4.034;2022-08-04T12:33:44;27.40;99.90
52267;DHT22;38223;50.940;4.034;2022-08-04T12:39:17;26.60;99.90
52267;DHT22;38223;50.940;4.034;2022-08-04T12:44:34;26.80;99.90
52267;DHT22;38223;50.940;4.034;2022-08-04T12:47:09;27.40;99.90
52267;DHT22;38223;50.940;4.034;2022-08-04T12:49:43;27.60;99.90
52267;DHT22;38223;50.940;4.034;2022-08-04T12:52:18;27.20;99.90
52267;DHT22;38223;50.940;4.034;2022-08-04T12:54:53;27.20;99.90
52267;DHT22;38223;50.940;4.034;2022-08-04T12:57:23;27.70;99.90
52267;DHT22;38223;50.940;4.034;2022-08-04T12:59:58;28.00;99.90
52267;DHT22;38223;50.940;4.034;2022-08-04T13:02:35;28.20;99.90
52267;DHT22;38223;50.940;4.034;2022-08-04T13:05:09;28.10;99.90
52267;DHT22;38223;50.940;4.034;2022-08-04T13:07:46;28.20;99.90
52267;DHT22;38223;50.940;4.034;2022-08-04T13:10:19;28.30;99.90
52267;DHT22;38223;50.940;4.034;2022-08-04T13:12:59;28.30;99.90
52267;DHT22;38223;50.940;4.034;2022-08-04T13:15:32;28.50;99.90
52267;DHT22;38223;50.940;4.034;2022-08-04T13:18:07;28.40;99.90
52267;DHT22;38223;50.940;4.034;2022-08-04T13:20:36;28.30;99.90
52267;DHT22;38223;50.940;4.034;2022-08-04T13:23:18;28.20;99.90
52267;DHT22;38223;50.940;4.034;2022-08-04T13:25:52;27.80;99.90
52267;DHT22;38223;50.940;4.034;2022-08-04T13:28:25;27.60;99.90
52267;DHT22;38223;50.940;4.034;2022-08-04T13:30:59;27.60;99.90
52267;DHT22;38223;50.940;4.034;2022-08-04T13:33:35;27.40;99.90
52267;DHT22;38223;50.940;4.034;2022-08-04T13:36:08;27.20;99.90
52267;DHT22;38223;50.940;4.034;2022-08-04T13:38:50;27.20;99.90
52267;DHT22;38223;50.940;4.034;2022-08-04T13:41:29;27.50;99.90
52267;DHT22;38223;50.940;4.034;2022-08-04T13:44:00;28.00;99.90
52267;DHT22;38223;50.940;4.034;2022-08-04T13:46:36;28.20;99.90
52267;DHT22;38223;50.940;4.034;2022-08-04T13:49:11;28.20;99.90
52267;DHT22;38223;50.940;4.034;2022-08-04T13:51:48;28.00;99.90
52267;DHT22;38223;50.940;4.034;2022-08-04T13:54:14;27.80;99.90
52267;DHT22;38223;50.940;4.034;2022-08-04T13:56:54;28.00;99.90
52267;DHT22;38223;50.940;4.034;2022-08-04T13:59:27;28.00;99.90
52267;DHT22;38223;50.940;4.034;2022-08-04T14:02:04;28.00;99.90
52267;DHT22;38223;50.940;4.034;2022-08-04T14:04:37;27.90;99.90
52267;DHT22;38223;50.940;4.034;2022-08-04T14:07:13;28.00;99.90
52267;DHT22;38223;50.940;4.034;2022-08-04T14:09:41;28.40;99.90
52267;DHT22;38223;50.940;4.034;2022-08-04T14:12:17;28.60;99.90
52267;DHT22;38223;50.940;4.034;2022-08-04T14:14:50;28.70;99.90
52267;DHT22;38223;50.940;4.034;2022-08-04T14:17:27;28.60;99.90
52267;DHT22;38223;50.940;4.034;2022-08-04T14:20:03;28.60;99.90
52267;DHT22;38223;50.940;4.034;2022-08-04T14:22:37;28.80;99.90
52267;DHT22;38223;50.940;4.034;2022-08-04T14:25:19;28.90;99.90
52267;DHT22;38223;50.940;4.034;2022-08-04T14:27:53;28.70;99.90
52267;DHT22;38223;50.940;4.034;2022-08-04T14:30:31;29.00;99.90
52267;DHT22;38223;50.940;4.034;2022-08-04T14:33:10;29.00;99.90
52267;DHT22;38223;50.940;4.034;2022-08-04T14:35:55;28.90;99.90
52267;DHT22;38223;50.940;4.034;2022-08-04T14:38:16;28.70;99.90
52267;DHT22;38223;50.940;4.034;2022-08-04T14:40:50;28.80;99.90
52267;DHT22;38223;50.940;4.034;2022-08-04T14:43:31;29.20;99.10
52267;DHT22;38223;50.940;4.034;2022-08-04T14:46:09;29.40;99.10
52267;DHT22;38223;50.940;4.034;2022-08-04T14:51:39;29.30;98.60
52267;DHT22;38223;50.940;4.034;2022-08-04T14:54:15;29.10;98.80
52267;DHT22;38223;50.940;4.034;2022-08-04T14:56:57;29.10;98.60
52267;DHT22;38223;50.940;4.034;2022-08-04T14:59:49;28.90;98.30
52267;DHT22;38223;50.940;4.034;2022-08-04T15:02:00;28.90;98.60
52267;DHT22;38223;50.940;4.034;2022-08-04T15:04:34;28.70;99.80
52267;DHT22;38223;50.940;4.034;2022-08-04T15:07:03;28.50;99.90
52267;DHT22;38223;50.940;4.034;2022-08-04T15:09:38;28.40;99.90
52267;DHT22;38223;50.940;4.034;2022-08-04T15:15:00;29.10;99.50
52267;DHT22;38223;50.940;4.034;2022-08-04T15:17:48;29.60;98.60
52267;DHT22;38223;50.940;4.034;2022-08-04T15:20:18;29.70;98.50
52267;DHT22;38223;50.940;4.034;2022-08-04T15:22:49;29.70;98.10
52267;DHT22;38223;50.940;4.034;2022-08-04T15:25:23;29.50;98.20
52267;DHT22;38223;50.940;4.034;2022-08-04T15:30:49;29.20;98.60
52267;DHT22;38223;50.940;4.034;2022-08-04T15:33:24;29.10;98.70
52267;DHT22;38223;50.940;4.034;2022-08-04T15:36:12;29.10;98.80
52267;DHT22;38223;50.940;4.034;2022-08-04T15:41:32;29.20;98.20
52267;DHT22;38223;50.940;4.034;2022-08-04T15:49:34;29.00;98.10
52267;DHT22;38223;50.940;4.034;2022-08-04T15:52:08;28.50;99.00
52267;DHT22;38223;50.940;4.034;2022-08-04T15:54:41;28.20;99.90
52267;DHT22;38223;50.940;4.034;2022-08-04T15:57:11;28.00;99.90
52267;DHT22;38223;50.940;4.034;2022-08-04T16:02:44;27.90;99.90
52267;DHT22;38223;50.940;4.034;2022-08-04T16:08:09;27.70;99.90
52267;DHT22;38223;50.940;4.034;2022-08-04T16:10:42;27.70;99.90
52267;DHT22;38223;50.940;4.034;2022-08-04T16:13:19;27.80;99.90
52267;DHT22;38223;50.940;4.034;2022-08-04T16:15:55;27.60;99.90
52267;DHT22;38223;50.940;4.034;2022-08-04T16:18:38;27.50;99.90
52267;DHT22;38223;50.940;4.034;2022-08-04T16:21:23;27.60;99.90
52267;DHT22;38223;50.940;4.034;2022-08-04T16:23:58;27.80;99.90
52267;DHT22;38223;50.940;4.034;2022-08-04T16:26:46;27.90;99.90
52267;DHT22;38223;50.940;4.034;2022-08-04T16:29:36;27.60;99.90
52267;DHT22;38223;50.940;4.034;2022-08-04T16:32:15;27.50;99.90
52267;DHT22;38223;50.940;4.034;2022-08-04T16:35:01;27.50;99.90
52267;DHT22;38223;50.940;4.034;2022-08-04T16:37:40;27.50;99.90
52267;DHT22;38223;50.940;4.034;2022-08-04T16:40:35;27.40;99.90
52267;DHT22;38223;50.940;4.034;2022-08-04T16:43:12;27.20;99.90
52267;DHT22;38223;50.940;4.034;2022-08-04T16:45:49;27.20;99.90
52267;DHT22;38223;50.940;4.034;2022-08-04T16:48:33;27.10;99.90
52267;DHT22;38223;50.940;4.034;2022-08-04T16:51:08;26.90;99.90
52267;DHT22;38223;50.940;4.034;2022-08-04T16:53:41;27.00;99.90
52267;DHT22;38223;50.940;4.034;2022-08-04T16:56:17;27.00;99.90
52267;DHT22;38223;50.940;4.034;2022-08-04T16:58:50;27.00;99.90
52267;DHT22;38223;50.940;4.034;2022-08-04T17:01:19;26.70;99.90
52267;DHT22;38223;50.940;4.034;2022-08-04T17:03:51;26.60;99.90
52267;DHT22;38223;50.940;4.034;2022-08-04T17:06:23;26.20;99.90
52267;DHT22;38223;50.940;4.034;2022-08-04T17:08:57;26.20;99.90
52267;DHT22;38223;50.940;4.034;2022-08-04T17:11:33;26.30;99.90
52267;DHT22;38223;50.940;4.034;2022-08-04T17:14:08;26.20;99.90
52267;DHT22;38223;50.940;4.034;2022-08-04T17:16:41;26.10;99.90
52267;DHT22;38223;50.940;4.034;2022-08-04T17:19:14;25.80;99.90
52267;DHT22;38223;50.940;4.034;2022-08-04T17:21:47;25.90;99.90
52267;DHT22;38223;50.940;4.034;2022-08-04T17:24:22;26.00;99.90
52267;DHT22;38223;50.940;4.034;2022-08-04T17:26:56;25.80;99.90
52267;DHT22;38223;50.940;4.034;2022-08-04T17:29:29;25.70;99.90
52267;DHT22;38223;50.940;4.034;2022-08-04T17:32:02;25.60;99.90
52267;DHT22;38223;50.940;4.034;2022-08-04T17:34:36;25.70;99.90
52267;DHT22;38223;50.940;4.034;2022-08-04T17:37:09;25.70;99.90
52267;DHT22;38223;50.940;4.034;2022-08-04T17:39:48;25.60;99.90
52267;DHT22;38223;50.940;4.034;2022-08-04T17:42:36;25.40;99.90
52267;DHT22;38223;50.940;4.034;2022-08-04T17:45:11;25.40;99.90
52267;DHT22;38223;50.940;4.034;2022-08-04T17:47:51;25.30;99.90
52267;DHT22;38223;50.940;4.034;2022-08-04T17:50:28;25.30;99.90
52267;DHT22;38223;50.940;4.034;2022-08-04T17:53:02;25.10;99.90
52267;DHT22;38223;50.940;4.034;2022-08-04T17:55:49;25.00;99.90
52267;DHT22;38223;50.940;4.034;2022-08-04T17:58:21;25.00;99.90
52267;DHT22;38223;50.940;4.034;2022-08-04T18:00:58;24.90;99.90
52267;DHT22;38223;50.940;4.034;2022-08-04T18:03:34;24.80;99.90
52267;DHT22;38223;50.940;4.034;2022-08-04T18:06:12;24.70;99.90
52267;DHT22;38223;50.940;4.034;2022-08-04T18:08:54;24.50;99.90
52267;DHT22;38223;50.940;4.034;2022-08-04T18:11:21;24.50;99.90
52267;DHT22;38223;50.940;4.034;2022-08-04T18:13:58;24.50;99.90
52267;DHT22;38223;50.940;4.034;2022-08-04T18:16:40;24.30;99.90
52267;DHT22;38223;50.940;4.034;2022-08-04T18:19:15;24.40;99.90
52267;DHT22;38223;50.940;4.034;2022-08-04T18:21:50;24.40;99.90
52267;DHT22;38223;50.940;4.034;2022-08-04T18:27:19;24.50;99.90
52267;DHT22;38223;50.940;4.034;2022-08-04T18:29:51;24.40;99.90
52267;DHT22;38223;50.940;4.034;2022-08-04T18:32:25;24.30;99.90
52267;DHT22;38223;50.940;4.034;2022-08-04T18:34:55;24.40;99.90
52267;DHT22;38223;50.940;4.034;2022-08-04T18:37:27;24.30;99.90
52267;DHT22;38223;50.940;4.034;2022-08-04T18:39:58;24.30;99.90
52267;DHT22;38223;50.940;4.034;2022-08-04T18:42:33;24.40;99.90
52267;DHT22;38223;50.940;4.034;2022-08-04T18:45:05;24.20;99.90
52267;DHT22;38223;50.940;4.034;2022-08-04T18:47:40;24.20;99.90
52267;DHT22;38223;50.940;4.034;2022-08-04T18:50:08;24.30;99.90
52267;DHT22;38223;50.940;4.034;2022-08-04T18:52:44;24.30;99.90
52267;DHT22;38223;50.940;4.034;2022-08-04T18:55:18;24.40;99.90
52267;DHT22;38223;50.940;4.034;2022-08-04T18:57:49;24.40;99.90
52267;DHT22;38223;50.940;4.034;2022-08-04T19:00:21;24.30;99.90
52267;DHT22;38223;50.940;4.034;2022-08-04T19:02:53;24.30;99.90
52267;DHT22;38223;50.940;4.034;2022-08-04T19:05:23;24.40;99.90
52267;DHT22;38223;50.940;4.034;2022-08-04T19:07:55;24.40;99.90
52267;DHT22;38223;50.940;4.034;2022-08-04T19:10:27;24.30;99.90
52267;DHT22;38223;50.940;4.034;2022-08-04T19:13:08;24.20;99.90
52267;DHT22;38223;50.940;4.034;2022-08-04T19:15:37;24.20;99.90
52267;DHT22;38223;50.940;4.034;2022-08-04T19:18:11;24.40;99.90
52267;DHT22;38223;50.940;4.034;2022-08-04T19:20:48;24.30;99.90
52267;DHT22;38223;50.940;4.034;2022-08-04T19:23:20;24.10;99.90
52267;DHT22;38223;50.940;4.034;2022-08-04T19:25:52;24.10;99.90
52267;DHT22;38223;50.940;4.034;2022-08-04T19:28:26;23.90;99.90
52267;DHT22;38223;50.940;4.034;2022-08-04T19:31:00;23.70;99.90
52267;DHT22;38223;50.940;4.034;2022-08-04T19:33:31;23.60;99.90
52267;DHT22;38223;50.940;4.034;2022-08-04T19:36:12;23.40;99.90
52267;DHT22;38223;50.940;4.034;2022-08-04T19:38:42;23.50;99.90
52267;DHT22;38223;50.940;4.034;2022-08-04T19:41:13;23.50;99.90
52267;DHT22;38223;50.940;4.034;2022-08-04T19:43:50;23.30;99.90
52267;DHT22;38223;50.940;4.034;2022-08-04T19:46:18;23.10;99.90
52267;DHT22;38223;50.940;4.034;2022-08-04T19:48:51;23.10;99.90
52267;DHT22;38223;50.940;4.034;2022-08-04T19:51:23;23.00;99.90
52267;DHT22;38223;50.940;4.034;2022-08-04T19:54:00;22.90;99.90
52267;DHT22;38223;50.940;4.034;2022-08-04T19:56:31;22.90;99.90
52267;DHT22;38223;50.940;4.034;2022-08-04T19:58:59;22.80;99.90
52267;DHT22;38223;50.940;4.034;2022-08-04T20:01:34;22.70;99.90